createdAt,value
2024-01-31T00:00:16.331Z,0
2024-01-31T00:02:16.353Z,0
2024-01-31T00:04:16.374Z,0
2024-01-31T00:05:16.499Z,0
2024-01-31T00:06:16.406Z,0
2024-01-31T00:07:16.351Z,0
2024-01-31T00:09:16.343Z,0
2024-01-31T00:10:17.112Z,0
2024-01-31T00:12:16.360Z,0
2024-01-31T00:14:16.321Z,0
2024-01-31T00:15:16.326Z,0
2024-01-31T00:16:16.337Z,0
2024-01-31T00:17:17.667Z,0
2024-01-31T00:18:20.984Z,0
2024-01-31T00:20:16.403Z,0
2024-01-31T00:21:16.332Z,0
2024-01-31T00:23:16.318Z,0
2024-01-31T00:24:16.633Z,0
2024-01-31T00:26:16.340Z,0
2024-01-31T00:27:16.336Z,0
2024-01-31T00:29:16.353Z,0
2024-01-31T00:31:16.405Z,0
2024-01-31T00:32:16.333Z,0
2024-01-31T00:33:16.325Z,0
2024-01-31T00:34:16.369Z,0
2024-01-31T00:36:16.318Z,0
2024-01-31T00:37:16.362Z,0
2024-01-31T00:38:16.317Z,0
2024-01-31T00:39:17.893Z,0
2024-01-31T00:40:21.296Z,0
2024-01-31T00:41:16.322Z,0
2024-01-31T00:42:16.337Z,0
2024-01-31T00:43:16.348Z,0
2024-01-31T00:44:16.325Z,0
2024-01-31T00:45:16.340Z,0
2024-01-31T00:46:16.758Z,0
2024-01-31T00:48:16.462Z,0
2024-01-31T00:49:17.051Z,0
2024-01-31T00:50:16.399Z,0
2024-01-31T00:51:16.328Z,0
2024-01-31T00:52:16.346Z,0
2024-01-31T00:53:16.321Z,0
2024-01-31T00:54:16.323Z,0
2024-01-31T00:55:16.469Z,0
2024-01-31T00:57:16.353Z,0
2024-01-31T00:58:16.343Z,0
2024-01-31T00:59:16.343Z,0
2024-01-31T01:00:17.966Z,0
2024-01-31T01:01:21.388Z,0
2024-01-31T01:03:16.330Z,0
2024-01-31T01:04:16.387Z,0
2024-01-31T01:05:16.337Z,0
2024-01-31T01:06:16.362Z,0
2024-01-31T01:07:16.710Z,0
2024-01-31T01:09:16.341Z,0
2024-01-31T01:10:16.383Z,0
2024-01-31T01:11:16.343Z,0
2024-01-31T01:13:16.420Z,0
2024-01-31T01:14:17.885Z,0
2024-01-31T01:15:17.057Z,0
2024-01-31T01:16:16.388Z,0
2024-01-31T01:18:16.384Z,0
2024-01-31T01:19:16.365Z,0
2024-01-31T01:20:16.376Z,0
2024-01-31T01:21:18.025Z,0
2024-01-31T01:22:21.345Z,0
2024-01-31T01:23:16.360Z,0
2024-01-31T01:24:16.379Z,0
2024-01-31T01:25:16.366Z,0
2024-01-31T01:26:16.338Z,0
2024-01-31T01:27:16.338Z,0
2024-01-31T01:28:16.340Z,0
2024-01-31T01:29:16.342Z,0
2024-01-31T01:30:16.344Z,0
2024-01-31T01:31:16.422Z,0
2024-01-31T01:32:16.350Z,0
2024-01-31T01:33:16.398Z,0
2024-01-31T01:34:16.483Z,0
2024-01-31T01:35:16.375Z,0
2024-01-31T01:36:16.347Z,0
2024-01-31T01:38:16.332Z,0
2024-01-31T01:39:16.363Z,0
2024-01-31T01:40:16.368Z,0
2024-01-31T01:41:16.363Z,0
2024-01-31T01:42:18.146Z,0
2024-01-31T01:43:21.629Z,0
2024-01-31T01:45:16.330Z,0
2024-01-31T01:46:16.377Z,0
2024-01-31T01:48:16.385Z,0
2024-01-31T01:49:16.381Z,0
2024-01-31T01:50:16.330Z,0
2024-01-31T01:51:16.345Z,0
2024-01-31T01:52:16.349Z,0
2024-01-31T01:53:16.335Z,0
2024-01-31T01:54:16.351Z,0
2024-01-31T01:55:16.381Z,0
2024-01-31T01:56:16.332Z,0
2024-01-31T01:57:16.335Z,0
2024-01-31T01:58:16.357Z,0
2024-01-31T01:59:16.401Z,0
2024-01-31T02:01:16.447Z,0
2024-01-31T02:02:16.350Z,0
2024-01-31T02:03:18.421Z,0
2024-01-31T02:04:21.348Z,0
2024-01-31T02:06:16.352Z,0
2024-01-31T02:07:16.400Z,0
2024-01-31T02:08:16.331Z,0
2024-01-31T02:09:16.353Z,0
2024-01-31T02:11:16.342Z,0
2024-01-31T02:12:16.336Z,0
2024-01-31T02:13:16.374Z,0
2024-01-31T02:14:16.342Z,0
2024-01-31T02:15:16.708Z,0
2024-01-31T02:17:16.328Z,0
2024-01-31T02:18:16.388Z,0
2024-01-31T02:19:16.403Z,0
2024-01-31T02:20:16.435Z,0
2024-01-31T02:22:16.336Z,0
2024-01-31T02:23:16.362Z,0
2024-01-31T02:24:18.406Z,0
2024-01-31T02:25:21.337Z,0
2024-01-31T02:27:16.331Z,0
2024-01-31T02:28:16.360Z,0
2024-01-31T02:29:16.326Z,0
2024-01-31T02:30:16.333Z,0
2024-01-31T02:31:16.388Z,0
2024-01-31T02:32:16.328Z,0
2024-01-31T02:33:16.376Z,0
2024-01-31T02:34:16.356Z,0
2024-01-31T02:35:16.404Z,0
2024-01-31T02:36:16.335Z,0
2024-01-31T02:37:16.337Z,0
2024-01-31T02:38:16.358Z,0
2024-01-31T02:40:16.411Z,0
2024-01-31T02:41:16.533Z,0
2024-01-31T02:43:16.372Z,0
2024-01-31T02:44:16.331Z,0
2024-01-31T02:45:18.464Z,0
2024-01-31T02:46:21.376Z,0
2024-01-31T02:48:16.414Z,0
2024-01-31T02:49:16.476Z,0
2024-01-31T02:50:16.347Z,0
2024-01-31T02:51:16.328Z,0
2024-01-31T02:52:16.418Z,0
2024-01-31T02:53:16.333Z,0
2024-01-31T02:54:16.324Z,0
2024-01-31T02:55:16.460Z,0
2024-01-31T02:56:16.351Z,0
2024-01-31T02:57:16.360Z,0
2024-01-31T02:58:16.351Z,0
2024-01-31T02:59:16.328Z,0
2024-01-31T03:00:16.334Z,0
2024-01-31T03:01:16.363Z,0
2024-01-31T03:02:16.599Z,0
2024-01-31T03:04:16.407Z,0
2024-01-31T03:05:16.430Z,0
2024-01-31T03:06:18.581Z,0
2024-01-31T03:07:21.490Z,0
2024-01-31T03:09:16.389Z,0
2024-01-31T03:10:16.405Z,0
2024-01-31T03:11:16.342Z,0
2024-01-31T03:13:16.348Z,0
2024-01-31T03:14:16.340Z,0
2024-01-31T03:15:16.331Z,0
2024-01-31T03:16:16.362Z,0
2024-01-31T03:18:16.445Z,0
2024-01-31T03:19:16.415Z,0
2024-01-31T03:20:16.322Z,0
2024-01-31T03:21:16.346Z,0
2024-01-31T03:23:16.679Z,0
2024-01-31T03:25:16.365Z,0
2024-01-31T03:26:16.323Z,0
2024-01-31T03:27:18.586Z,0
2024-01-31T03:28:21.496Z,0
2024-01-31T03:30:16.362Z,0
2024-01-31T03:31:16.423Z,0
2024-01-31T03:32:16.350Z,0
2024-01-31T03:33:16.415Z,0
2024-01-31T03:34:16.433Z,0
2024-01-31T03:36:16.365Z,0
2024-01-31T03:37:16.362Z,0
2024-01-31T03:39:16.349Z,0
2024-01-31T03:40:16.354Z,0
2024-01-31T03:42:16.340Z,0
2024-01-31T03:43:16.434Z,0
2024-01-31T03:45:16.372Z,0
2024-01-31T03:46:16.407Z,0
2024-01-31T03:48:16.355Z,0
2024-01-31T03:49:16.459Z,0
2024-01-31T03:50:19.138Z,0
2024-01-31T03:51:22.022Z,0
2024-01-31T03:53:16.349Z,0
2024-01-31T03:54:16.355Z,0
2024-01-31T03:55:16.380Z,0
2024-01-31T03:57:16.341Z,0
2024-01-31T03:58:16.361Z,0
2024-01-31T03:59:16.332Z,0
2024-01-31T04:00:16.668Z,0
2024-01-31T04:02:16.396Z,0
2024-01-31T04:03:16.350Z,0
2024-01-31T04:04:16.417Z,0
2024-01-31T04:05:16.531Z,0
2024-01-31T04:07:16.354Z,0
2024-01-31T04:08:16.346Z,0
2024-01-31T04:09:16.355Z,0
2024-01-31T04:10:16.474Z,0
2024-01-31T04:11:19.188Z,0
2024-01-31T04:12:22.096Z,0
2024-01-31T04:14:16.328Z,0
2024-01-31T04:15:16.331Z,0
2024-01-31T04:17:16.327Z,0
2024-01-31T04:18:16.403Z,0
2024-01-31T04:19:16.387Z,0
2024-01-31T04:20:16.394Z,0
2024-01-31T04:21:16.707Z,0
2024-01-31T04:23:16.321Z,0
2024-01-31T04:24:16.336Z,0
2024-01-31T04:25:16.405Z,0
2024-01-31T04:27:16.328Z,0
2024-01-31T04:28:16.345Z,0
2024-01-31T04:29:16.350Z,0
2024-01-31T04:30:16.362Z,0
2024-01-31T04:31:16.451Z,0
2024-01-31T04:32:19.293Z,0
2024-01-31T04:33:22.354Z,0
2024-01-31T04:35:16.368Z,0
2024-01-31T04:36:16.340Z,0
2024-01-31T04:37:16.357Z,0
2024-01-31T04:38:16.338Z,0
2024-01-31T04:39:16.327Z,0
2024-01-31T04:40:16.366Z,0
2024-01-31T04:41:16.324Z,0
2024-01-31T04:42:16.724Z,0
2024-01-31T04:43:16.351Z,0
2024-01-31T04:44:17.128Z,0
2024-01-31T04:45:16.343Z,0
2024-01-31T04:46:16.407Z,0
2024-01-31T04:48:16.689Z,0
2024-01-31T04:49:16.424Z,0
2024-01-31T04:50:16.631Z,0
2024-01-31T04:52:16.377Z,0
2024-01-31T04:53:19.404Z,0
2024-01-31T04:54:22.416Z,0
2024-01-31T04:56:16.450Z,0
2024-01-31T04:57:16.335Z,0
2024-01-31T04:59:16.488Z,0
2024-01-31T05:00:16.351Z,0
2024-01-31T05:01:16.447Z,0
2024-01-31T05:02:16.404Z,0
2024-01-31T05:03:16.590Z,0
2024-01-31T05:05:16.409Z,0
2024-01-31T05:07:16.329Z,0
2024-01-31T05:08:16.319Z,0
2024-01-31T05:09:16.328Z,0
2024-01-31T05:10:16.374Z,0
2024-01-31T05:11:16.434Z,0
2024-01-31T05:13:16.612Z,0
2024-01-31T05:14:19.566Z,0
2024-01-31T05:15:22.576Z,0
2024-01-31T05:17:16.663Z,0
2024-01-31T05:18:16.392Z,0
2024-01-31T05:19:16.439Z,0
2024-01-31T05:20:16.411Z,0
2024-01-31T05:21:16.336Z,0
2024-01-31T05:22:16.378Z,0
2024-01-31T05:23:16.333Z,0
2024-01-31T05:24:16.330Z,0
2024-01-31T05:25:16.359Z,0
2024-01-31T05:27:16.344Z,0
2024-01-31T05:29:16.328Z,0
2024-01-31T05:30:16.331Z,0
2024-01-31T05:32:16.320Z,0
2024-01-31T05:33:16.383Z,0
2024-01-31T05:34:16.528Z,0
2024-01-31T05:35:19.603Z,0
2024-01-31T05:36:22.839Z,0
2024-01-31T05:38:16.333Z,0
2024-01-31T05:39:16.333Z,0
2024-01-31T05:40:16.368Z,0
2024-01-31T05:41:16.325Z,0
2024-01-31T05:42:16.335Z,0
2024-01-31T05:43:16.359Z,0
2024-01-31T05:44:16.331Z,0
2024-01-31T05:45:16.332Z,0
2024-01-31T05:46:16.348Z,0
2024-01-31T05:47:16.337Z,0
2024-01-31T05:48:16.329Z,0
2024-01-31T05:50:16.406Z,0
2024-01-31T05:51:16.356Z,0
2024-01-31T05:53:16.329Z,0
2024-01-31T05:54:16.325Z,0
2024-01-31T05:55:16.804Z,0
2024-01-31T05:56:19.654Z,0
2024-01-31T05:57:22.815Z,0
2024-01-31T05:59:16.655Z,0
2024-01-31T06:00:16.338Z,0
2024-01-31T06:01:16.383Z,0
2024-01-31T06:02:16.348Z,0
2024-01-31T06:03:16.334Z,0
2024-01-31T06:05:16.358Z,0
2024-01-31T06:06:16.468Z,0
2024-01-31T06:08:16.322Z,0
2024-01-31T06:09:16.352Z,0
2024-01-31T06:10:16.355Z,0
2024-01-31T06:11:16.324Z,0
2024-01-31T06:12:16.324Z,0
2024-01-31T06:13:16.342Z,0
2024-01-31T06:14:16.354Z,0
2024-01-31T06:15:16.332Z,0
2024-01-31T06:16:16.773Z,0
2024-01-31T06:17:19.775Z,0
2024-01-31T06:18:22.903Z,0
2024-01-31T06:20:16.718Z,0
2024-01-31T06:21:16.329Z,0
2024-01-31T06:22:16.338Z,0
2024-01-31T06:23:16.609Z,0
2024-01-31T06:24:16.321Z,0.23
2024-01-31T06:25:16.339Z,0
2024-01-31T06:26:16.344Z,0.23
2024-01-31T06:27:16.337Z,0.23
2024-01-31T06:28:16.333Z,0.23
2024-01-31T06:29:16.318Z,0.23
2024-01-31T06:30:16.326Z,0.23
2024-01-31T06:31:16.390Z,0.23
2024-01-31T06:32:16.407Z,0.23
2024-01-31T06:34:16.498Z,0.46
2024-01-31T06:35:16.464Z,0.69
2024-01-31T06:37:16.764Z,0.92
2024-01-31T06:38:19.796Z,1.15
2024-01-31T06:39:22.902Z,1.38
2024-01-31T06:41:16.343Z,2.07
2024-01-31T06:43:16.344Z,3.22
2024-01-31T06:44:16.334Z,3.91
2024-01-31T06:46:16.566Z,5.52
2024-01-31T06:47:16.328Z,6.67
2024-01-31T06:48:16.442Z,7.82
2024-01-31T06:50:16.451Z,10.83
2024-01-31T06:51:16.349Z,12.5
2024-01-31T06:53:16.317Z,15
2024-01-31T06:54:16.352Z,17.5
2024-01-31T06:56:16.330Z,23.33
2024-01-31T06:57:16.332Z,25.83
2024-01-31T06:58:16.877Z,28.33
2024-01-31T06:59:19.951Z,30.83
2024-01-31T07:00:20.942Z,37.5
2024-01-31T07:01:16.345Z,45
2024-01-31T07:02:16.426Z,51.67
2024-01-31T07:03:16.339Z,56.67
2024-01-31T07:04:16.395Z,62.5
2024-01-31T07:06:16.330Z,80.83
2024-01-31T07:07:16.421Z,90
2024-01-31T07:08:16.391Z,95.83
2024-01-31T07:09:16.335Z,101.67
2024-01-31T07:11:16.351Z,121.67
2024-01-31T07:12:16.326Z,132.5
2024-01-31T07:13:16.332Z,140
2024-01-31T07:14:16.321Z,145
2024-01-31T07:15:18.715Z,155.83
2024-01-31T07:16:16.473Z,164.17
2024-01-31T07:17:16.323Z,169.17
2024-01-31T07:18:16.412Z,175
2024-01-31T07:19:17.112Z,189.17
2024-01-31T07:20:20.068Z,207.5
2024-01-31T07:21:23.120Z,211.67
2024-01-31T07:23:16.341Z,217.5
2024-01-31T07:24:20.832Z,230
2024-01-31T07:25:16.346Z,240
2024-01-31T07:26:16.319Z,255
2024-01-31T07:27:16.325Z,269.17
2024-01-31T07:28:16.359Z,285.83
2024-01-31T07:29:16.346Z,311.67
2024-01-31T07:30:16.319Z,335.83
2024-01-31T07:31:16.345Z,357.5
2024-01-31T07:32:16.355Z,377.5
2024-01-31T07:33:16.449Z,389.17
2024-01-31T07:35:16.367Z,394.17
2024-01-31T07:36:16.326Z,397.5
2024-01-31T07:37:16.365Z,403.33
2024-01-31T07:38:17.287Z,409.17
2024-01-31T07:39:16.436Z,433.33
2024-01-31T07:40:16.984Z,449.17
2024-01-31T07:41:20.045Z,430
2024-01-31T07:42:23.141Z,394.17
2024-01-31T07:44:16.350Z,405
2024-01-31T07:46:16.339Z,465
2024-01-31T07:48:16.344Z,503.33
2024-01-31T07:49:16.420Z,498.33
2024-01-31T07:51:16.315Z,526.67
2024-01-31T07:52:16.337Z,553.33
2024-01-31T07:53:16.336Z,576.67
2024-01-31T07:54:16.446Z,568.33
2024-01-31T07:56:16.327Z,572.5
2024-01-31T07:57:16.332Z,605
2024-01-31T07:58:16.326Z,623.33
2024-01-31T07:59:16.344Z,648.33
2024-01-31T08:00:16.348Z,675
2024-01-31T08:01:17.226Z,678.33
2024-01-31T08:02:20.315Z,692.5
2024-01-31T08:03:23.440Z,710.83
2024-01-31T08:05:16.376Z,743.33
2024-01-31T08:07:16.364Z,810.83
2024-01-31T08:08:16.333Z,829.17
2024-01-31T08:09:21.664Z,825
2024-01-31T08:10:16.354Z,853.33
2024-01-31T08:11:16.319Z,892.5
2024-01-31T08:12:16.318Z,929.17
2024-01-31T08:13:16.400Z,942.5
2024-01-31T08:14:16.341Z,956.67
2024-01-31T08:15:16.550Z,1003.33
2024-01-31T08:17:16.341Z,1046.67
2024-01-31T08:18:16.365Z,1051.67
2024-01-31T08:19:16.360Z,1090.83
2024-01-31T08:20:16.392Z,1145.83
2024-01-31T08:21:16.336Z,1169.17
2024-01-31T08:22:17.287Z,1177.5
2024-01-31T08:23:20.269Z,1189.17
2024-01-31T08:24:23.383Z,1207.5
2024-01-31T08:26:16.350Z,1299.17
2024-01-31T08:28:16.361Z,1254.17
2024-01-31T08:29:20.753Z,1282.5
2024-01-31T08:30:16.321Z,1330.83
2024-01-31T08:31:16.432Z,1355
2024-01-31T08:33:16.388Z,1367.5
2024-01-31T08:34:16.521Z,1366.67
2024-01-31T08:35:16.501Z,1320
2024-01-31T08:36:16.337Z,1267.5
2024-01-31T08:38:16.333Z,1265.83
2024-01-31T08:39:16.334Z,1222.5
2024-01-31T08:40:18.693Z,1195
2024-01-31T08:41:16.354Z,1202.5
2024-01-31T08:42:16.335Z,1193.33
2024-01-31T08:43:16.380Z,1171.67
2024-01-31T08:44:17.662Z,1151.67
2024-01-31T08:45:20.715Z,1135
2024-01-31T08:46:23.593Z,1135.83
2024-01-31T08:48:16.364Z,1159.17
2024-01-31T08:49:16.398Z,1195
2024-01-31T08:51:16.424Z,1319.17
2024-01-31T08:53:16.325Z,1350
2024-01-31T08:54:16.376Z,1299.17
2024-01-31T08:55:16.370Z,1294.17
2024-01-31T08:57:18.917Z,1260.83
2024-01-31T08:58:16.357Z,1272.5
2024-01-31T08:59:16.346Z,1311.67
2024-01-31T09:01:16.375Z,1364.17
2024-01-31T09:03:16.329Z,1380
2024-01-31T09:04:17.634Z,1379.17
2024-01-31T09:05:17.888Z,1333.33
2024-01-31T09:06:20.992Z,1280
2024-01-31T09:08:16.335Z,1317.5
2024-01-31T09:09:16.336Z,1347.5
2024-01-31T09:10:16.356Z,1354.17
2024-01-31T09:11:16.337Z,1365
2024-01-31T09:12:16.424Z,1379.17
2024-01-31T09:14:16.329Z,1435
2024-01-31T09:15:16.359Z,1492.5
2024-01-31T09:17:16.331Z,1417.5
2024-01-31T09:19:16.414Z,1521.67
2024-01-31T09:20:16.355Z,1502.5
2024-01-31T09:22:16.352Z,1447.5
2024-01-31T09:23:16.354Z,1525
2024-01-31T09:25:16.368Z,1581.67
2024-01-31T09:26:17.757Z,1631.67
2024-01-31T09:27:21.133Z,1710
2024-01-31T09:29:16.364Z,1693.33
2024-01-31T09:30:16.336Z,1647.5
2024-01-31T09:32:16.363Z,1540.83
2024-01-31T09:33:16.631Z,1545.83
2024-01-31T09:34:16.434Z,1557.5
2024-01-31T09:35:16.419Z,1590
2024-01-31T09:36:16.325Z,1649.17
2024-01-31T09:37:16.342Z,1673.33
2024-01-31T09:38:16.348Z,1650.83
2024-01-31T09:39:16.390Z,1636.67
2024-01-31T09:40:16.357Z,1671.67
2024-01-31T09:41:16.336Z,1778.33
2024-01-31T09:42:16.334Z,1857.5
2024-01-31T09:43:16.376Z,1808.33
2024-01-31T09:44:16.344Z,1747.5
2024-01-31T09:46:16.559Z,1891.67
2024-01-31T09:47:17.912Z,1990.83
2024-01-31T09:48:21.182Z,2105.83
2024-01-31T09:50:16.379Z,2278.33
2024-01-31T09:51:16.329Z,2267.5
2024-01-31T09:52:16.376Z,2265.83
2024-01-31T09:53:16.340Z,2251.67
2024-01-31T09:54:16.718Z,2292.5
2024-01-31T09:56:16.351Z,2544.17
2024-01-31T09:57:16.333Z,2684.17
2024-01-31T09:58:16.351Z,2885
2024-01-31T09:59:16.344Z,3014.17
2024-01-31T10:00:16.359Z,3017.5
2024-01-31T10:02:16.355Z,3158.33
2024-01-31T10:03:16.366Z,3194.17
2024-01-31T10:04:16.418Z,3096.67
2024-01-31T10:05:16.363Z,3012.5
2024-01-31T10:06:16.374Z,2881.67
2024-01-31T10:08:17.945Z,2570
2024-01-31T10:09:21.138Z,2791.67
2024-01-31T10:11:16.328Z,3067.5
2024-01-31T10:12:16.357Z,2985
2024-01-31T10:13:16.367Z,2830.83
2024-01-31T10:14:16.327Z,2737.5
2024-01-31T10:15:16.767Z,2682.5
2024-01-31T10:17:16.328Z,2764.17
2024-01-31T10:18:16.356Z,2949.17
2024-01-31T10:20:16.448Z,2891.67
2024-01-31T10:21:16.368Z,2905
2024-01-31T10:23:16.330Z,3059.17
2024-01-31T10:25:16.443Z,3470.83
2024-01-31T10:26:16.579Z,3867.5
2024-01-31T10:27:16.325Z,3920.83
2024-01-31T10:28:16.357Z,3759.17
2024-01-31T10:29:18.074Z,3665.83
2024-01-31T10:30:21.186Z,3629.17
2024-01-31T10:32:16.421Z,3458.33
2024-01-31T10:33:16.401Z,3478.33
2024-01-31T10:34:17.155Z,3644.17
2024-01-31T10:37:44.721Z,4035.83
2024-01-31T10:38:16.525Z,3964.17
2024-01-31T10:39:16.674Z,3770
2024-01-31T10:41:16.326Z,4172.5
2024-01-31T10:42:16.334Z,4143.33
2024-01-31T10:43:16.333Z,3910
2024-01-31T10:44:16.646Z,3728.33
2024-01-31T10:46:16.384Z,3800
2024-01-31T10:48:16.464Z,3297.5
2024-01-31T10:49:16.420Z,3363.33
2024-01-31T10:50:18.055Z,3339.17
2024-01-31T10:51:21.572Z,3206.67
2024-01-31T10:53:16.337Z,3215
2024-01-31T10:54:16.381Z,3298.33
2024-01-31T10:55:16.432Z,3301.67
2024-01-31T10:57:16.322Z,3348.33
2024-01-31T10:59:16.346Z,3400
2024-01-31T11:00:16.361Z,3468.33
2024-01-31T11:02:16.327Z,3483.33
2024-01-31T11:03:16.335Z,3456.67
2024-01-31T11:04:16.348Z,3493.33
2024-01-31T11:06:16.429Z,3789.17
2024-01-31T11:07:16.561Z,3915.83
2024-01-31T11:09:16.338Z,4266.67
2024-01-31T11:11:18.094Z,4392.5
2024-01-31T11:12:21.352Z,4200.83
2024-01-31T11:14:16.360Z,3892.5
2024-01-31T11:15:16.312Z,3843.33
2024-01-31T11:16:16.313Z,3902.5
2024-01-31T11:17:16.349Z,4094.17
2024-01-31T11:18:16.999Z,4202.5
2024-01-31T11:19:16.366Z,4240.83
2024-01-31T11:21:16.331Z,4245
2024-01-31T11:23:16.318Z,4650
2024-01-31T11:24:16.397Z,4698.33
2024-01-31T11:26:16.329Z,4782.5
2024-01-31T11:27:16.331Z,4757.5
2024-01-31T11:28:16.536Z,4674.17
2024-01-31T11:30:16.360Z,4502.5
2024-01-31T11:31:16.354Z,4656.67
2024-01-31T11:32:18.233Z,4835
2024-01-31T11:33:21.845Z,4955
2024-01-31T11:35:16.331Z,5098.33
2024-01-31T11:36:16.372Z,5218.33
2024-01-31T11:37:16.330Z,5265.83
2024-01-31T11:38:16.342Z,5081.67
2024-01-31T11:39:16.318Z,4827.5
2024-01-31T11:40:16.360Z,4814.17
2024-01-31T11:42:16.339Z,4873.33
2024-01-31T11:43:16.337Z,4810
2024-01-31T11:44:16.733Z,4784.17
2024-01-31T11:46:16.348Z,5019.17
2024-01-31T11:47:16.352Z,4968.33
2024-01-31T11:48:16.617Z,4844.17
2024-01-31T11:49:16.513Z,4717.5
2024-01-31T11:51:16.350Z,4732.5
2024-01-31T11:52:16.389Z,4737.5
2024-01-31T11:53:16.357Z,4790
2024-01-31T11:54:16.397Z,4825
2024-01-31T11:55:19.245Z,4711.67
2024-01-31T11:56:22.160Z,4618.33
2024-01-31T11:58:16.355Z,4671.67
2024-01-31T11:59:16.371Z,4540
2024-01-31T12:01:16.363Z,4547.5
2024-01-31T12:02:16.358Z,4354.17
2024-01-31T12:03:16.354Z,4366.67
2024-01-31T12:04:16.398Z,4466.67
2024-01-31T12:06:16.432Z,4190.83
2024-01-31T12:07:16.383Z,4286.67
2024-01-31T12:08:16.357Z,4586.67
2024-01-31T12:09:16.367Z,4580.83
2024-01-31T12:10:16.357Z,4340
2024-01-31T12:11:16.377Z,4263.33
2024-01-31T12:12:16.400Z,4185
2024-01-31T12:13:16.394Z,4073.33
2024-01-31T12:14:16.364Z,4105
2024-01-31T12:15:16.360Z,4101.67
2024-01-31T12:16:19.380Z,4115.83
2024-01-31T12:17:22.375Z,4178.33
2024-01-31T12:19:16.432Z,4221.67
2024-01-31T12:20:16.379Z,4149.17
2024-01-31T12:21:16.363Z,4035
2024-01-31T12:23:16.388Z,3902.5
2024-01-31T12:24:16.398Z,3884.17
2024-01-31T12:25:16.357Z,4015.83
2024-01-31T12:26:16.398Z,4233.33
2024-01-31T12:28:16.366Z,4680.83
2024-01-31T12:29:16.368Z,4662.5
2024-01-31T12:30:16.517Z,4495
2024-01-31T12:31:16.374Z,4474.17
2024-01-31T12:33:16.413Z,4441.67
2024-01-31T12:35:16.383Z,4795
2024-01-31T12:36:16.452Z,4650.83
2024-01-31T12:37:19.402Z,4530.83
2024-01-31T12:38:22.394Z,4515
2024-01-31T12:40:16.454Z,4593.33
2024-01-31T12:41:16.389Z,4380.83
2024-01-31T12:43:16.342Z,4575
2024-01-31T12:44:16.374Z,4752.5
2024-01-31T12:46:16.351Z,4605
2024-01-31T12:47:16.366Z,4490.83
2024-01-31T12:49:16.438Z,4796.67
2024-01-31T12:50:16.435Z,4655.83
2024-01-31T12:51:16.353Z,4622.5
2024-01-31T12:52:16.363Z,4690.83
2024-01-31T12:53:16.366Z,4699.17
2024-01-31T12:54:16.418Z,4587.5
2024-01-31T12:56:16.364Z,4935.83
2024-01-31T12:57:16.679Z,4745
2024-01-31T12:58:19.469Z,4590
2024-01-31T12:59:25.611Z,4547.5
2024-01-31T13:01:16.637Z,4157.5
2024-01-31T13:02:16.410Z,4062.5
2024-01-31T13:03:16.434Z,3891.67
2024-01-31T13:04:16.416Z,3903.33
2024-01-31T13:05:16.382Z,3887.5
2024-01-31T13:06:16.517Z,3772.5
2024-01-31T13:08:16.346Z,3640.83
2024-01-31T13:09:16.351Z,3503.33
2024-01-31T13:10:16.799Z,3479.17
2024-01-31T13:12:16.459Z,3956.67
2024-01-31T13:13:16.376Z,3890
2024-01-31T13:14:16.373Z,3870.83
2024-01-31T13:15:16.401Z,3960.83
2024-01-31T13:16:16.354Z,4004.17
2024-01-31T13:18:16.577Z,4010
2024-01-31T13:19:19.600Z,4180
2024-01-31T13:20:22.710Z,4224.17
2024-01-31T13:22:16.604Z,4327.5
2024-01-31T13:23:16.341Z,4125
2024-01-31T13:24:16.403Z,3947.5
2024-01-31T13:25:16.447Z,4095.83
2024-01-31T13:26:16.350Z,4041.67
2024-01-31T13:27:16.418Z,3858.33
2024-01-31T13:28:16.347Z,3709.17
2024-01-31T13:29:16.413Z,3624.17
2024-01-31T13:30:16.408Z,3575.83
2024-01-31T13:31:16.357Z,3495.83
2024-01-31T13:32:16.358Z,3536.67
2024-01-31T13:33:16.398Z,3882.5
2024-01-31T13:34:16.410Z,3802.5
2024-01-31T13:35:16.383Z,3448.33
2024-01-31T13:36:16.406Z,3285.83
2024-01-31T13:38:16.344Z,3108.33
2024-01-31T13:39:16.583Z,2966.67
2024-01-31T13:40:19.636Z,2873.33
2024-01-31T13:41:22.823Z,2829.17
2024-01-31T13:43:16.628Z,2940
2024-01-31T13:44:16.349Z,2988.33
2024-01-31T13:45:16.412Z,2914.17
2024-01-31T13:46:16.353Z,2870
2024-01-31T13:47:16.350Z,2840
2024-01-31T13:48:16.421Z,2910.83
2024-01-31T13:49:16.365Z,2910.83
2024-01-31T13:50:16.344Z,2737.5
2024-01-31T13:51:16.352Z,2652.5
2024-01-31T13:52:16.352Z,2694.17
2024-01-31T13:53:16.355Z,2620
2024-01-31T13:55:16.375Z,2642.5
2024-01-31T13:56:16.356Z,2731.67
2024-01-31T13:57:16.350Z,2735.83
2024-01-31T13:58:16.333Z,2650.83
2024-01-31T13:59:16.351Z,2523.33
2024-01-31T14:00:16.720Z,2502.5
2024-01-31T14:01:19.734Z,2645.83
2024-01-31T14:02:23.030Z,2704.17
2024-01-31T14:04:16.799Z,2601.67
2024-01-31T14:06:16.577Z,2565.83
2024-01-31T14:07:16.408Z,2433.33
2024-01-31T14:08:16.367Z,2327.5
2024-01-31T14:09:16.374Z,2242.5
2024-01-31T14:10:16.351Z,2196.67
2024-01-31T14:11:16.361Z,2020.83
2024-01-31T14:12:16.401Z,1957.5
2024-01-31T14:13:16.366Z,2011.67
2024-01-31T14:14:16.374Z,2024.17
2024-01-31T14:15:16.449Z,2045.83
2024-01-31T14:16:16.350Z,2042.5
2024-01-31T14:17:16.361Z,1995.83
2024-01-31T14:18:16.473Z,1989.17
2024-01-31T14:20:16.450Z,1936.67
2024-01-31T14:21:16.923Z,1850
2024-01-31T14:22:24.212Z,1864.17
2024-01-31T14:23:33.140Z,1864.17
2024-01-31T14:25:16.600Z,1733.33
2024-01-31T14:26:16.358Z,1710.83
2024-01-31T14:27:16.366Z,1715
2024-01-31T14:28:16.357Z,1690
2024-01-31T14:29:16.374Z,1679.17
2024-01-31T14:30:16.408Z,1886.67
2024-01-31T14:32:16.357Z,1901.67
2024-01-31T14:34:16.469Z,1795.83
2024-01-31T14:35:16.371Z,1813.33
2024-01-31T14:36:16.388Z,1753.33
2024-01-31T14:37:16.376Z,1683.33
2024-01-31T14:39:16.351Z,1561.67
2024-01-31T14:40:16.350Z,1512.5
2024-01-31T14:41:16.364Z,1437.5
2024-01-31T14:42:17.092Z,1341.67
2024-01-31T14:43:19.920Z,1325
2024-01-31T14:44:23.020Z,1346.67
2024-01-31T14:46:16.380Z,1253.33
2024-01-31T14:47:16.368Z,1211.67
2024-01-31T14:48:16.533Z,1211.67
2024-01-31T14:50:16.346Z,1157.5
2024-01-31T14:51:16.353Z,1190.83
2024-01-31T14:52:16.350Z,1168.33
2024-01-31T14:53:16.372Z,1117.5
2024-01-31T14:55:16.338Z,1091.67
2024-01-31T14:56:16.359Z,1091.67
2024-01-31T14:57:16.375Z,1102.5
2024-01-31T14:59:16.353Z,1055.83
2024-01-31T15:00:16.384Z,1073.33
2024-01-31T15:01:16.372Z,1017.5
2024-01-31T15:02:16.357Z,958.33
2024-01-31T15:03:16.438Z,928.33
2024-01-31T15:04:17.083Z,881.67
2024-01-31T15:05:20.251Z,850
2024-01-31T15:06:23.347Z,865.83
2024-01-31T15:08:16.359Z,884.17
2024-01-31T15:10:16.357Z,925
2024-01-31T15:11:16.427Z,844.17
2024-01-31T15:12:16.454Z,809.17
2024-01-31T15:14:16.348Z,839.17
2024-01-31T15:15:16.406Z,815.83
2024-01-31T15:16:16.344Z,805
2024-01-31T15:17:16.362Z,796.67
2024-01-31T15:18:16.756Z,747.5
2024-01-31T15:20:16.784Z,737.5
2024-01-31T15:21:16.339Z,706.67
2024-01-31T15:22:16.370Z,707.5
2024-01-31T15:23:16.356Z,701.67
2024-01-31T15:24:16.406Z,625.83
2024-01-31T15:25:17.176Z,618.33
2024-01-31T15:26:20.183Z,634.17
2024-01-31T15:27:23.258Z,646.67
2024-01-31T15:29:16.661Z,618.33
2024-01-31T15:31:16.372Z,585.83
2024-01-31T15:32:16.362Z,583.33
2024-01-31T15:34:16.424Z,601.67
2024-01-31T15:36:16.381Z,581.67
2024-01-31T15:38:16.360Z,647.5
2024-01-31T15:39:16.585Z,644.17
2024-01-31T15:41:16.340Z,596.67
2024-01-31T15:42:16.405Z,589.17
2024-01-31T15:43:16.420Z,558.33
2024-01-31T15:45:16.366Z,471.67
2024-01-31T15:46:17.225Z,431.67
2024-01-31T15:47:20.584Z,397.5
2024-01-31T15:48:23.721Z,355.83
2024-01-31T15:50:16.345Z,313.33
2024-01-31T15:51:16.364Z,293.33
2024-01-31T15:52:16.346Z,264.17
2024-01-31T15:53:16.348Z,245.83
2024-01-31T15:54:16.373Z,250
2024-01-31T15:56:16.341Z,210.83
2024-01-31T15:57:16.392Z,195.83
2024-01-31T15:58:16.362Z,188.33
2024-01-31T15:59:16.367Z,185.83
2024-01-31T16:00:16.784Z,175.83
2024-01-31T16:02:16.340Z,164.17
2024-01-31T16:03:16.417Z,150.83
2024-01-31T16:04:16.374Z,140
2024-01-31T16:06:16.402Z,125.83
2024-01-31T16:07:17.273Z,119.17
2024-01-31T16:08:20.434Z,108.33
2024-01-31T16:09:23.478Z,98.33
2024-01-31T16:11:16.346Z,79.17
2024-01-31T16:12:16.391Z,71.67
2024-01-31T16:13:16.400Z,63.33
2024-01-31T16:14:16.374Z,57.5
2024-01-31T16:15:16.384Z,55
2024-01-31T16:16:16.357Z,48.33
2024-01-31T16:17:16.351Z,40.83
2024-01-31T16:18:16.708Z,36.67
2024-01-31T16:19:16.529Z,33.33
2024-01-31T16:20:16.435Z,30.83
2024-01-31T16:21:16.768Z,26.67
2024-01-31T16:23:16.437Z,21.67
2024-01-31T16:24:16.391Z,20
2024-01-31T16:26:16.344Z,17.5
2024-01-31T16:27:16.371Z,15.83